Time;durP1;ratioP1;P1;durP2;ratioP2;P2;SDS_P1;SDS_P2;PMS_P1;PMS_P2;Temp;Humidity;BMP_temperature;BMP_pressure;BME280_temperature;BME280_humidity;BME280_pressure;Samples;Min_cycle;Max_cycle;Signal;HPM_P1;HPM_P2
2022/09/13 00:00:56;;;;;;;6.70;3.67;;;;;;;10.29;93.35;100224.06;1464535;87;22474;-80
2022/09/13 00:03:23;;;;;;;9.07;4.80;;;;;;;10.29;91.84;100220.59;1465135;88;22464;-80
2022/09/13 00:05:49;;;;;;;4.87;3.50;;;;;;;10.27;95.14;100222.08;1460106;88;21426;-79
2022/09/13 00:08:16;;;;;;;9.40;4.53;;;;;;;10.24;92.21;100219.70;1475316;88;21492;-79
2022/09/13 00:10:44;;;;;;;8.13;4.33;;;;;;;10.20;91.44;100215.68;1480505;88;21499;-79
2022/09/13 00:13:13;;;;;;;6.87;3.97;;;;;;;10.17;92.51;100212.84;1484732;87;21440;-79
2022/09/13 00:15:49;;;;;;;4.97;3.20;;;;;;;10.19;92.56;100212.70;1481975;88;21485;-79
2022/09/13 00:18:17;;;;;;;4.73;3.10;;;;;;;10.13;92.56;100209.34;1476448;88;21634;-81
2022/09/13 00:20:45;;;;;;;17.33;4.70;;;;;;;10.11;92.92;100213.45;1476385;88;21592;-81
2022/09/13 00:23:11;;;;;;;4.80;3.63;;;;;;;10.08;95.57;100216.88;1486634;87;22087;-81
2022/09/13 00:25:38;;;;;;;5.77;3.63;;;;;;;10.04;94.03;100214.18;1465059;88;22506;-82
2022/09/13 00:28:05;;;;;;;6.20;3.17;;;;;;;9.97;94.18;100207.84;1457405;88;22772;-81
2022/09/13 00:30:32;;;;;;;9.07;3.70;;;;;;;9.92;96.10;100209.09;1461470;88;21523;-82
2022/09/13 00:32:58;;;;;;;3.33;2.77;;;;;;;9.89;94.91;100217.83;1454353;89;22440;-80
2022/09/13 00:35:25;;;;;;;5.60;3.50;;;;;;;9.85;94.13;100215.98;1453369;88;21677;-80
2022/09/13 00:37:51;;;;;;;7.47;3.90;;;;;;;9.85;92.77;100212.51;1485818;87;21633;-82
2022/09/13 00:40:18;;;;;;;4.80;3.33;;;;;;;9.85;92.50;100218.62;1484356;87;21636;-81
2022/09/13 00:42:44;;;;;;;5.90;3.00;;;;;;;9.87;91.82;100214.03;1467838;87;21596;-79
2022/09/13 00:45:15;;;;;;;8.27;3.80;;;;;;;9.80;94.19;100210.30;1477430;87;21418;-80
2022/09/13 00:48:01;;;;;;;5.17;3.90;;;;;;;9.76;92.03;100208.94;1476923;87;21485;-80
2022/09/13 00:50:35;;;;;;;6.40;4.00;;;;;;;9.71;92.18;100209.87;1481482;88;21581;-81
2022/09/13 00:53:29;;;;;;;6.97;3.50;;;;;;;9.66;91.82;100201.54;1485811;87;22520;-81
2022/09/13 00:56:09;;;;;;;10.03;3.27;;;;;;;9.62;92.08;100204.97;1464576;87;21411;-80
2022/09/13 00:58:57;;;;;;;6.67;3.70;;;;;;;9.55;93.73;100207.02;1471435;88;21447;-81
2022/09/13 01:01:27;;;;;;;4.77;3.00;;;;;;;9.51;93.56;100209.13;1461494;88;21684;-81
2022/09/13 01:03:54;;;;;;;3.00;2.70;;;;;;;9.44;96.33;100209.38;1463258;88;21567;-81
2022/09/13 01:06:28;;;;;;;3.40;3.00;;;;;;;9.42;94.54;100209.52;1483800;88;21507;-80
2022/09/13 01:08:53;;;;;;;5.80;3.87;;;;;;;9.39;96.95;100215.58;1473787;88;21662;-81
2022/09/13 01:11:30;;;;;;;7.57;4.07;;;;;;;9.38;96.02;100217.86;1486997;88;21677;-81
2022/09/13 01:13:58;;;;;;;4.07;3.67;;;;;;;9.37;96.11;100222.81;1478757;87;21484;-79
2022/09/13 01:16:25;;;;;;;7.70;4.90;;;;;;;9.33;96.58;100220.95;1462445;88;21499;-80
2022/09/13 01:18:52;;;;;;;8.87;4.37;;;;;;;9.31;95.64;100220.25;1462888;89;21500;-80
2022/09/13 01:21:49;;;;;;;9.37;3.97;;;;;;;9.28;95.37;100225.83;1473087;88;21552;-80
2022/09/13 01:24:53;;;;;;;6.47;3.90;;;;;;;9.28;95.87;100217.91;1465156;88;22381;-78
2022/09/13 01:27:57;;;;;;;4.23;3.63;;;;;;;9.29;94.70;100214.77;1459153;88;22616;-80
2022/09/13 01:30:33;;;;;;;6.90;3.30;;;;;;;9.31;94.64;100218.94;1456768;88;21567;-80
2022/09/13 01:33:14;;;;;;;7.23;4.33;;;;;;;9.28;95.54;100220.55;1466100;88;21562;-80
2022/09/13 01:35:58;;;;;;;5.65;4.12;;;;;;;9.26;95.60;100219.38;1483132;88;21669;-79
2022/09/13 01:38:44;;;;;;;7.37;3.90;;;;;;;9.26;95.83;100218.52;1478807;87;21559;-80
2022/09/13 01:41:36;;;;;;;5.23;4.63;;;;;;;9.25;95.08;100221.66;1480650;87;22379;-80
2022/09/13 01:44:17;;;;;;;8.33;3.87;;;;;;;9.25;95.45;100219.02;1479426;87;22469;-80
2022/09/13 01:47:01;;;;;;;8.00;2.90;;;;;;;9.26;95.60;100215.42;1483098;87;21692;-79
2022/09/13 01:49:35;;;;;;;7.90;3.57;;;;;;;9.28;95.16;100223.19;1461168;89;21551;-80
2022/09/13 01:52:22;;;;;;;4.33;3.53;;;;;;;9.29;94.83;100219.56;1459393;88;21599;-80
2022/09/13 01:55:26;;;;;;;8.60;4.70;;;;;;;9.29;94.60;100217.41;1466662;88;22460;-79
2022/09/13 01:58:16;;;;;;;10.97;4.87;;;;;;;9.28;94.47;100219.22;1478581;88;21461;-81
2022/09/13 02:00:58;;;;;;;8.25;5.37;;;;;;;9.27;95.50;100221.53;1462388;87;22122;-81
2022/09/13 02:03:35;;;;;;;10.20;4.80;;;;;;;9.24;95.83;100218.69;1460161;88;21485;-82
2022/09/13 02:06:19;;;;;;;5.37;3.57;;;;;;;9.23;95.52;100222.78;1476522;88;21426;-82
2022/09/13 02:08:55;;;;;;;5.70;3.20;;;;;;;9.23;94.83;100221.45;1464104;87;21716;-81
2022/09/13 02:11:23;;;;;;;8.93;3.63;;;;;;;9.22;94.58;100221.13;1464830;88;21596;-78
2022/09/13 02:13:54;;;;;;;4.90;3.90;;;;;;;9.20;94.39;100215.15;1470084;88;21619;-77
2022/09/13 02:16:29;;;;;;;9.43;4.07;;;;;;;9.23;95.45;100224.09;1458688;88;22342;-78
2022/09/13 02:19:00;;;;;;;10.50;4.57;;;;;;;9.19;96.27;100219.60;1466653;88;21485;-78
2022/09/13 02:21:31;;;;;;;11.67;5.33;;;;;;;9.17;97.25;100223.36;1461483;89;21456;-79
2022/09/13 02:24:07;;;;;;;5.20;4.58;;;;;;;9.15;97.62;100224.84;1466837;88;21463;-79
2022/09/13 02:26:37;;;;;;;5.73;4.33;;;;;;;9.14;96.16;100224.97;1464155;88;21492;-76
2022/09/13 02:29:09;;;;;;;8.60;4.27;;;;;;;9.13;96.41;100222.82;1460176;88;22411;-79
2022/09/13 02:31:40;;;;;;;11.90;3.67;;;;;;;9.14;96.33;100228.92;1456184;88;21529;-78
2022/09/13 02:34:20;;;;;;;4.63;4.00;;;;;;;9.13;95.83;100235.19;1454848;89;21474;-78
2022/09/13 02:36:50;;;;;;;11.95;4.80;;;;;;;9.14;95.51;100230.25;1449447;89;21510;-77
2022/09/13 02:39:21;;;;;;;7.47;3.60;;;;;;;9.14;95.33;100234.20;1455677;88;21404;-78
2022/09/13 02:42:11;;;;;;;;;;;;;;;9.10;95.79;100238.12;1481529;88;21449;-77
2022/09/13 02:44:48;;;;;;;5.27;3.87;;;;;;;9.03;95.79;100230.77;1457446;88;20253;-78
2022/09/13 02:47:55;;;;;;;5.57;4.27;;;;;;;8.95;95.57;100231.97;1453309;88;21485;-77
2022/09/13 02:50:53;;;;;;;6.10;3.80;;;;;;;8.91;95.11;100229.73;1459344;88;21479;-79
2022/09/13 02:53:30;;;;;;;4.90;3.20;;;;;;;8.87;96.13;100238.44;1476108;87;21480;-79
2022/09/13 02:56:25;;;;;;;5.53;3.83;;;;;;;8.86;95.14;100237.23;1477846;88;22168;-80
2022/09/13 02:59:05;;;;;;;6.17;4.00;;;;;;;8.86;95.45;100234.14;1463803;87;21523;-81
2022/09/13 03:01:35;;;;;;;4.20;3.65;;;;;;;8.88;95.20;100232.17;1460774;88;21485;-79
2022/09/13 03:04:02;;;;;;;4.73;4.30;;;;;;;8.86;95.45;100223.59;1477181;87;21463;-80
2022/09/13 03:06:29;;;;;;;7.43;4.63;;;;;;;8.89;94.79;100239.13;1476649;87;21404;-80
2022/09/13 03:08:59;;;;;;;9.07;5.07;;;;;;;8.86;95.48;100236.78;1466358;87;21433;-80
2022/09/13 03:11:51;;;;;;;5.72;4.17;;;;;;;8.84;95.19;100235.25;1477632;87;21500;-79
2022/09/13 03:14:32;;;;;;;3.80;3.23;;;;;;;8.82;95.21;100235.38;1475327;87;21375;-77
2022/09/13 03:17:36;;;;;;;3.95;3.52;;;;;;;8.83;94.82;100242.31;1477305;87;22466;-81
2022/09/13 03:20:13;;;;;;;13.07;4.07;;;;;;;8.83;95.11;100236.20;1463002;87;21434;-80
2022/09/13 03:23:11;;;;;;;16.47;5.37;;;;;;;8.85;95.42;100241.69;1475394;88;21486;-81
2022/09/13 03:26:09;;;;;;;9.43;4.37;;;;;;;8.87;94.89;100237.61;1469057;88;21360;-81
2022/09/13 03:29:24;;;;;;;5.97;5.10;;;;;;;8.86;95.11;100235.92;1469083;87;21640;-81
2022/09/13 03:31:59;;;;;;;7.17;5.53;;;;;;;8.81;94.29;100241.64;1472532;87;21486;-80
2022/09/13 03:34:47;;;;;;;10.93;6.67;;;;;;;8.76;94.15;100241.22;1451551;88;21428;-79
2022/09/13 03:37:35;;;;;;;8.90;5.23;;;;;;;8.71;95.18;100237.67;1446290;88;21479;-80
2022/09/13 03:40:14;;;;;;;5.53;4.30;;;;;;;8.68;95.84;100238.45;1459543;88;21508;-80
2022/09/13 03:43:19;;;;;;;7.33;4.10;;;;;;;8.67;95.27;100238.94;1443767;88;22381;-80
2022/09/13 03:45:58;;;;;;;5.83;4.37;;;;;;;8.69;95.34;100225.59;1453740;89;21515;-81
2022/09/13 03:48:26;;;;;;;8.40;4.60;;;;;;;8.73;95.35;100223.03;1466080;88;21479;-80
2022/09/13 03:50:54;;;;;;;7.80;4.97;;;;;;;8.73;94.58;100216.44;1466595;87;22454;-79
2022/09/13 03:53:24;;;;;;;11.23;5.53;;;;;;;8.70;94.53;100216.72;1466941;88;22403;-78
2022/09/13 03:55:51;;;;;;;9.95;5.12;;;;;;;8.70;94.78;100212.77;1464839;87;22506;-79
2022/09/13 03:58:20;;;;;;;13.90;5.87;;;;;;;8.67;94.89;100210.41;1455037;88;21486;-81
2022/09/13 04:00:46;;;;;;;10.60;5.13;;;;;;;8.64;94.47;100205.41;1457429;88;22328;-81
2022/09/13 04:03:13;;;;;;;12.90;5.13;;;;;;;8.62;93.96;100205.54;1455267;88;21471;-80
2022/09/13 04:05:40;;;;;;;7.73;5.00;;;;;;;8.61;94.48;100207.02;1448654;89;21493;-81
2022/09/13 04:08:07;;;;;;;10.37;4.43;;;;;;;8.61;94.37;100205.20;1461440;88;22623;-81
2022/09/13 04:10:36;;;;;;;9.73;6.27;;;;;;;8.63;95.07;100199.77;1462503;87;22337;-80
2022/09/13 04:13:03;;;;;;;7.03;5.70;;;;;;;8.66;94.33;100202.98;1451121;88;21471;-80
2022/09/13 04:15:30;;;;;;;8.50;5.67;;;;;;;8.65;94.96;100199.98;1451119;89;22395;-79
2022/09/13 04:17:56;;;;;;;11.83;5.97;;;;;;;8.64;95.47;100200.97;1450899;88;22308;-80
2022/09/13 04:20:23;;;;;;;9.57;6.57;;;;;;;8.57;96.92;100200.70;1458119;88;21382;-80
2022/09/13 04:22:53;;;;;;;10.57;5.97;;;;;;;8.54;96.25;100190.41;1462242;88;21397;-80
2022/09/13 04:25:21;;;;;;;6.87;5.27;;;;;;;8.55;95.99;100194.73;1466493;87;21456;-79
2022/09/13 04:27:48;;;;;;;11.17;6.20;;;;;;;8.54;96.10;100195.68;1460998;88;22043;-80
2022/09/13 04:30:14;;;;;;;8.80;6.17;;;;;;;8.57;95.46;100191.94;1472695;87;21434;-80
2022/09/13 04:32:44;;;;;;;10.07;5.00;;;;;;;8.61;99.89;100201.74;1462148;88;22019;-80
2022/09/13 04:35:10;;;;;;;9.73;5.90;;;;;;;8.67;98.87;100197.22;1456081;88;21442;-78
2022/09/13 04:37:38;;;;;;;8.07;5.77;;;;;;;8.72;97.31;100201.59;1458136;88;22459;-79
2022/09/13 04:40:07;;;;;;;9.47;5.37;;;;;;;8.76;97.17;100204.28;1469918;88;21566;-79
2022/09/13 04:42:33;;;;;;;11.67;6.20;;;;;;;8.80;96.33;100195.95;1482369;87;21433;-79
2022/09/13 04:44:59;;;;;;;10.23;6.40;;;;;;;8.83;96.55;100200.09;1463645;88;21508;-79
2022/09/13 04:47:25;;;;;;;16.00;7.20;;;;;;;8.89;96.01;100206.61;1461349;88;21433;-82
2022/09/13 04:49:51;;;;;;;9.03;6.40;;;;;;;8.93;96.13;100200.09;1459963;88;22254;-79
2022/09/13 04:52:17;;;;;;;11.67;5.70;;;;;;;8.99;97.29;100201.66;1465703;88;21331;-83
2022/09/13 04:54:43;;;;;;;11.37;6.07;;;;;;;9.08;96.88;100199.97;1462717;88;21529;-80
2022/09/13 04:57:09;;;;;;;9.63;6.20;;;;;;;9.15;96.30;100201.53;1473726;88;21463;-81
2022/09/13 04:59:35;;;;;;;12.57;7.87;;;;;;;9.20;95.93;100203.27;1470564;87;21427;-85
2022/09/13 05:02:01;;;;;;;10.67;6.87;;;;;;;9.24;96.40;100212.09;1457090;88;21661;-85
2022/09/13 05:04:27;;;;;;;12.73;6.50;;;;;;;9.31;95.54;100213.66;1486391;88;21998;-85
2022/09/13 05:06:53;;;;;;;9.67;5.87;;;;;;;9.38;95.49;100220.03;1467605;88;22528;-83
2022/09/13 05:09:19;;;;;;;15.00;6.23;;;;;;;9.46;95.31;100219.29;1475438;88;21944;-80
2022/09/13 05:11:45;;;;;;;8.67;5.47;;;;;;;9.55;95.24;100221.55;1473958;88;21411;-82
2022/09/13 05:14:11;;;;;;;17.03;6.37;;;;;;;9.64;95.36;100223.34;1469960;88;21662;-84
2022/09/13 05:16:38;;;;;;;7.97;5.43;;;;;;;9.72;95.15;100214.16;1483138;88;22285;-80
2022/09/13 05:19:04;;;;;;;17.40;7.03;;;;;;;9.80;94.91;100211.61;1474452;87;21485;-84
2022/09/13 05:21:31;;;;;;;15.53;7.60;;;;;;;9.91;94.99;100215.88;1465200;87;22069;-78
2022/09/13 05:23:58;;;;;;;11.03;6.57;;;;;;;10.01;95.17;100212.70;1466181;88;21470;-80
2022/09/13 05:26:29;;;;;;;12.63;6.23;;;;;;;10.13;96.55;100210.17;1469420;87;21448;-84
2022/09/13 05:28:57;;;;;;;17.27;6.73;;;;;;;10.24;95.69;100213.09;1421719;88;21391;-82
2022/09/13 05:31:28;;;;;;;8.60;6.30;;;;;;;10.35;95.60;100204.94;1438414;88;21500;-80
2022/09/13 05:37:53;;;;;;;10.67;6.97;;;;;;;10.62;95.11;100211.14;1519808;85;21645;-84
2022/09/13 05:40:19;;;;;;;11.37;6.67;;;;;;;10.83;94.04;100218.73;1511552;85;22488;-83
2022/09/13 05:42:45;;;;;;;12.07;6.97;;;;;;;10.95;93.56;100217.99;1501118;85;22494;-83
2022/09/13 05:45:11;;;;;;;9.43;6.27;;;;;;;11.02;92.98;100218.55;1510919;85;21469;-82
2022/09/13 05:47:37;;;;;;;9.57;5.87;;;;;;;11.14;92.86;100216.47;1507080;85;21554;-84
2022/09/13 05:50:04;;;;;;;7.33;5.77;;;;;;;11.26;92.34;100212.56;1499096;85;22293;-83
2022/09/13 05:52:30;;;;;;;17.10;6.40;;;;;;;11.44;92.48;100219.60;1513708;85;21600;-84
2022/09/13 05:54:56;;;;;;;8.37;5.47;;;;;;;11.54;91.20;100217.68;1503508;86;21498;-84
2022/09/13 05:57:22;;;;;;;7.90;5.47;;;;;;;11.67;91.34;100218.05;1508726;86;21513;-84
2022/09/13 05:59:48;;;;;;;8.87;5.53;;;;;;;11.74;89.31;100216.94;1488127;86;21543;-84
2022/09/13 06:02:14;;;;;;;9.50;5.50;;;;;;;11.84;89.23;100210.16;1513210;86;21580;-83
2022/09/13 06:04:40;;;;;;;16.17;6.27;;;;;;;11.94;89.01;100210.90;1505127;85;21461;-84
2022/09/13 06:07:06;;;;;;;7.07;5.00;;;;;;;12.06;88.96;100208.27;1507659;86;22327;-85
2022/09/13 06:09:32;;;;;;;8.03;4.80;;;;;;;12.21;89.36;100208.45;1501189;86;22082;-83
2022/09/13 06:11:58;;;;;;;9.40;4.67;;;;;;;12.35;88.38;100205.16;1502127;86;21491;-84
2022/09/13 06:14:24;;;;;;;8.87;5.53;;;;;;;12.51;87.96;100215.45;1508497;86;21476;-83
2022/09/13 06:16:51;;;;;;;10.13;5.20;;;;;;;12.69;87.97;100217.93;1514882;86;22393;-84
2022/09/13 06:19:16;;;;;;;7.10;4.60;;;;;;;12.73;84.80;100221.42;1512191;86;21469;-83
2022/09/13 06:21:42;;;;;;;9.10;4.07;;;;;;;12.82;84.87;100219.59;1504729;86;22430;-94
2022/09/13 06:24:09;;;;;;;7.63;4.83;;;;;;;12.90;83.66;100220.92;1505729;86;21432;-93
2022/09/13 06:26:35;;;;;;;9.17;4.97;;;;;;;13.02;84.58;100224.88;1512711;86;21418;-96
2022/09/13 06:29:01;;;;;;;4.57;4.03;;;;;;;13.02;82.20;100222.22;1503915;86;22065;-91
2022/09/13 06:31:27;;;;;;;7.00;3.90;;;;;;;13.09;83.25;100222.40;1508117;86;21416;-92
2022/09/13 06:33:59;;;;;;;6.57;3.67;;;;;;;13.23;83.23;100215.54;1505499;86;21476;-91
2022/09/13 06:36:26;;;;;;;5.00;3.87;;;;;;;13.30;80.68;100219.22;1509394;86;22011;-93
2022/09/13 06:38:53;;;;;;;7.17;3.83;;;;;;;13.47;81.06;100219.50;1507990;86;21514;-90
2022/09/13 06:41:23;;;;;;;8.07;4.53;;;;;;;13.62;80.16;100224.10;1506229;86;21493;-90
2022/09/13 06:43:57;;;;;;;4.62;3.35;;;;;;;13.77;80.83;100221.03;1511909;86;21996;-90
2022/09/13 06:46:30;;;;;;;6.43;3.23;;;;;;;13.99;80.64;100228.25;1521518;86;21506;-92
2022/09/13 06:49:03;;;;;;;6.43;3.83;;;;;;;14.17;78.45;100233.80;1535746;86;21583;-89
2022/09/13 06:51:32;;;;;;;6.67;3.77;;;;;;;14.37;79.62;100232.33;1485316;86;21513;-88
2022/09/13 06:54:02;;;;;;;10.10;3.00;;;;;;;14.45;75.37;100230.95;1511015;86;21439;-87
2022/09/13 06:56:34;;;;;;;11.57;4.83;;;;;;;14.62;76.66;100236.20;1510636;86;21452;-92
2022/09/13 06:59:05;;;;;;;6.97;2.97;;;;;;;14.71;75.33;100231.13;1509298;86;22327;-93
2022/09/13 07:01:39;;;;;;;3.47;2.67;;;;;;;14.94;75.63;100239.59;1503239;86;21403;-93
2022/09/13 07:04:10;;;;;;;4.60;2.90;;;;;;;15.15;75.08;100240.22;1490082;86;21551;-92
2022/09/13 07:06:42;;;;;;;3.33;2.43;;;;;;;15.35;73.96;100240.83;1504402;86;21617;-92
2022/09/13 07:09:21;;;;;;;6.57;2.40;;;;;;;15.50;71.61;100240.00;1504523;86;21624;-93
2022/09/13 07:11:52;;;;;;;5.70;2.73;;;;;;;15.55;69.79;100237.61;1499539;86;21498;-95
2022/09/13 07:14:29;;;;;;;5.60;2.45;;;;;;;15.65;68.30;100244.84;1511983;85;21410;-93
2022/09/13 07:16:56;;;;;;;2.80;2.10;;;;;;;15.66;66.88;100243.82;1508818;86;21536;-93
2022/09/13 07:19:25;;;;;;;4.60;2.83;;;;;;;15.79;67.39;100240.03;1503837;86;21631;-93
2022/09/13 07:21:54;;;;;;;3.67;2.50;;;;;;;15.85;65.59;100244.28;1466872;86;21483;-93
2022/09/13 07:24:22;;;;;;;3.33;2.23;;;;;;;15.99;65.68;100250.10;1489644;86;22482;-91
2022/09/13 07:26:50;;;;;;;7.93;2.40;;;;;;;16.17;66.64;100247.87;1494073;86;22336;-91
2022/09/13 07:29:22;;;;;;;3.47;2.50;;;;;;;16.22;62.82;100245.95;1504303;86;21586;-92
2022/09/13 07:31:53;;;;;;;5.73;2.50;;;;;;;16.38;62.60;100249.73;1505712;86;21647;-93
2022/09/13 07:34:22;;;;;;;;;;;;;;;16.45;62.54;100252.45;1502913;86;21676;-91
2022/09/13 07:36:50;;;;;;;3.03;2.47;;;;;;;16.55;59.43;100244.97;1504973;86;20391;-90
2022/09/13 07:39:19;;;;;;;9.77;2.43;;;;;;;16.64;60.43;100251.83;1487605;87;21551;-88
2022/09/13 07:41:46;;;;;;;14.70;3.90;;;;;;;16.74;58.90;100250.16;1493233;86;21424;-94
2022/09/13 07:44:13;;;;;;;4.07;2.37;;;;;;;16.73;59.58;100253.86;1507418;85;21450;-89
2022/09/13 07:46:42;;;;;;;4.70;2.37;;;;;;;16.78;59.42;100256.00;1511259;85;22529;-89
2022/09/13 07:49:12;;;;;;;5.43;2.80;;;;;;;16.90;59.84;100257.13;1515206;85;21631;-82
2022/09/13 07:51:42;;;;;;;8.90;2.42;;;;;;;17.18;60.28;100252.31;1507711;85;21585;-91
2022/09/13 07:54:16;;;;;;;9.30;2.55;;;;;;;17.38;56.24;100259.95;1604153;85;21318;-87
2022/09/13 07:56:44;;;;;;;6.73;2.57;;;;;;;17.45;58.37;100263.48;1428852;85;21403;-87
2022/09/13 07:59:15;;;;;;;6.17;2.37;;;;;;;17.50;58.33;100257.55;1433144;86;21326;-90
2022/09/13 08:01:43;;;;;;;;;;;;;;;17.46;53.66;100250.41;1431514;85;21447;-87
2022/09/13 08:04:16;;;;;;;4.13;2.60;;;;;;;17.41;54.01;100252.05;1406072;87;20276;-88
2022/09/13 08:06:44;;;;;;;9.87;2.67;;;;;;;17.53;56.06;100257.16;1558696;87;21411;-89
2022/09/13 08:09:12;;;;;;;4.77;2.63;;;;;;;17.77;57.98;100255.83;1402055;88;21345;-91
2022/09/13 08:11:48;;;;;;;7.47;2.10;;;;;;;17.95;58.32;100260.19;1406738;87;21278;-90
2022/09/13 08:14:18;;;;;;;4.70;2.90;;;;;;;17.97;52.90;100256.77;1553361;88;21249;-93
2022/09/13 08:16:46;;;;;;;;;;;;;;;18.21;56.20;100251.91;1391724;88;22181;-92
2022/09/13 08:19:16;;;;;;;6.35;2.80;;;;;;;18.12;50.67;100249.10;1409535;88;20869;-91
2022/09/13 08:21:44;;;;;;;2.67;2.05;;;;;;;17.90;50.73;100251.92;1391405;89;21412;-89
2022/09/13 08:24:18;;;;;;;4.35;2.52;;;;;;;18.04;51.30;100255.48;1390574;89;21315;-86
2022/09/13 08:26:46;;;;;;;6.62;2.95;;;;;;;18.15;51.73;100253.53;1513779;88;22500;-93
2022/09/13 08:29:17;;;;;;;6.85;2.62;;;;;;;18.36;53.08;100258.45;1392423;87;22271;-86
2022/09/13 08:31:44;;;;;;;10.03;2.65;;;;;;;18.43;53.14;100256.09;1397743;88;21346;-91
2022/09/13 08:34:14;;;;;;;9.70;2.55;;;;;;;18.69;52.62;100251.80;1394176;87;21500;-88
2022/09/13 08:36:43;;;;;;;8.15;3.52;;;;;;;18.70;51.25;100252.09;1389752;90;22225;-90
2022/09/13 08:39:16;;;;;;;6.00;4.10;;;;;;;18.92;53.10;100256.79;1396713;88;21479;-88
2022/09/13 08:41:51;;;;;;;4.33;2.72;;;;;;;18.97;50.83;100257.52;1501841;87;21552;-89
2022/09/13 08:44:38;;;;;;;9.15;2.70;;;;;;;18.86;51.27;100253.59;1462656;88;21619;-89
2022/09/13 08:47:33;;;;;;;4.58;2.40;;;;;;;18.79;52.03;100253.60;1477111;87;22423;-87
2022/09/13 08:50:20;;;;;;;2.98;2.25;;;;;;;18.84;52.36;100250.28;1478613;87;21470;-85
2022/09/13 08:53:28;;;;;;;8.78;3.58;;;;;;;19.04;53.27;100251.63;1474934;87;21451;-88
2022/09/13 08:56:15;;;;;;;3.85;2.10;;;;;;;19.15;52.72;100254.50;1481145;87;21359;-88
2022/09/13 08:58:53;;;;;;;6.40;2.00;;;;;;;19.19;48.89;100250.06;1474078;87;21494;-92
2022/09/13 09:02:16;;;;;;;5.25;2.65;;;;;;;19.16;50.06;100248.61;1478453;87;21361;-90
2022/09/13 09:05:06;;;;;;;4.95;2.00;;;;;;;19.12;48.10;100246.05;1388925;92;21562;-89
2022/09/13 09:07:58;;;;;;;3.67;2.47;;;;;;;19.12;49.61;100248.73;1475900;87;21433;-91
2022/09/13 09:10:32;;;;;;;7.90;1.90;;;;;;;19.12;47.88;100240.17;1561208;86;21383;-92
2022/09/13 09:13:10;;;;;;;2.22;1.60;;;;;;;19.24;48.61;100247.06;1399788;89;21382;-92
2022/09/13 09:15:52;;;;;;;4.45;1.95;;;;;;;19.28;45.31;100248.31;1453334;88;21491;-86
2022/09/13 09:18:26;;;;;;;7.08;1.85;;;;;;;19.35;46.27;100247.77;1473767;87;21485;-90
2022/09/13 09:20:57;;;;;;;5.25;1.92;;;;;;;19.59;48.38;100245.44;1477061;87;21433;-87
2022/09/13 09:23:38;;;;;;;;;;;;;;;19.65;46.25;100238.40;1470796;87;21521;-86
2022/09/13 09:26:16;;;;;;;6.05;1.87;;;;;;;19.79;42.71;100231.48;1456991;88;20314;-90
2022/09/13 09:28:57;;;;;;;7.95;1.90;;;;;;;20.10;47.51;100228.53;1457728;86;21403;-90
2022/09/13 09:31:42;;;;;;;4.22;1.50;;;;;;;20.24;45.46;100222.57;1473376;87;21464;-89
2022/09/13 09:34:17;;;;;;;4.17;2.52;;;;;;;20.47;46.27;100220.66;1461572;89;22461;-88
2022/09/13 09:37:05;;;;;;;3.90;1.82;;;;;;;20.56;45.28;100216.70;1460103;89;21449;-90
2022/09/13 09:39:37;;;;;;;3.45;1.90;;;;;;;20.70;45.69;100212.86;1452237;87;21469;-89
2022/09/13 09:42:03;;;;;;;3.77;2.30;;;;;;;20.57;45.79;100210.30;1486100;87;21628;-87
2022/09/13 09:44:33;;;;;;;5.72;2.22;;;;;;;20.72;45.62;100209.97;1467411;87;22485;-89
2022/09/13 09:47:17;;;;;;;6.90;2.87;;;;;;;20.81;43.51;100207.83;1479245;88;21548;-89
2022/09/13 09:50:09;;;;;;;3.87;2.10;;;;;;;20.71;44.61;100210.99;1473998;88;21440;-86
2022/09/13 09:53:05;;;;;;;4.12;2.25;;;;;;;20.49;42.82;100208.66;1480203;88;21670;-88
2022/09/13 09:55:44;;;;;;;6.62;2.10;;;;;;;20.45;43.59;100207.42;1435458;89;22603;-88
2022/09/13 09:58:15;;;;;;;3.47;2.12;;;;;;;20.57;44.58;100199.55;1479914;87;21536;-90
2022/09/13 10:00:56;;;;;;;5.05;2.47;;;;;;;20.57;44.58;100199.55;1461215;87;21685;-86
2022/09/13 10:03:30;;;;;;;7.25;3.05;;;;;;;20.72;44.88;100191.96;1456236;89;21913;-88
2022/09/13 10:06:14;;;;;;;3.17;2.27;;;;;;;20.73;44.80;100198.98;1480525;86;22232;-88
2022/09/13 10:08:43;;;;;;;4.33;2.75;;;;;;;20.49;44.59;100197.91;1474211;87;21543;-89
2022/09/13 10:11:10;;;;;;;3.42;2.20;;;;;;;20.68;45.84;100192.08;1462113;89;21492;-89
2022/09/13 10:13:38;;;;;;;3.35;2.62;;;;;;;21.00;45.21;100183.94;1478925;86;21403;-92
2022/09/13 10:16:45;;;;;;;8.18;2.52;;;;;;;21.21;45.62;100180.55;1493281;86;21374;-88
2022/09/13 10:19:25;;;;;;;5.00;2.62;;;;;;;21.21;45.62;100180.55;1501832;86;21417;-89
2022/09/13 10:22:03;;;;;;;4.78;1.50;;;;;;;21.61;44.38;100188.49;1500780;86;22269;-92
2022/09/13 10:24:30;;;;;;;2.92;1.87;;;;;;;21.82;43.32;100183.67;1498218;86;21388;-91
2022/09/13 10:26:58;;;;;;;4.42;2.17;;;;;;;21.92;43.19;100178.55;1500090;86;21609;-90
2022/09/13 10:29:27;;;;;;;4.55;1.72;;;;;;;21.53;39.58;100171.30;1483425;86;21492;-90
2022/09/13 10:31:57;;;;;;;7.67;1.82;;;;;;;21.72;40.53;100176.64;1399712;87;22352;-87
2022/09/13 10:34:31;;;;;;;55.33;3.70;;;;;;;21.92;42.00;100170.46;1505266;86;21653;-89
2022/09/13 10:37:16;;;;;;;6.20;1.98;;;;;;;22.02;43.18;100165.89;1475907;88;21485;-87
2022/09/13 10:40:04;;;;;;;8.68;2.20;;;;;;;22.10;41.76;100164.22;1476807;88;21552;-88
2022/09/13 10:42:31;;;;;;;3.02;1.85;;;;;;;22.08;41.37;100160.39;1472236;88;22060;-93
2022/09/13 10:45:04;;;;;;;5.10;1.70;;;;;;;22.29;42.10;100160.95;1479067;88;21529;-91
2022/09/13 10:47:40;;;;;;;4.22;2.00;;;;;;;22.47;41.32;100154.14;1475405;88;22363;-90
2022/09/13 10:50:18;;;;;;;8.18;1.98;;;;;;;22.61;40.80;100154.72;1476897;87;21495;-86
2022/09/13 10:52:52;;;;;;;5.12;2.00;;;;;;;22.71;40.23;100156.32;1480682;86;21450;-87
2022/09/13 10:55:25;;;;;;;2.27;1.47;;;;;;;22.57;40.51;100150.05;1476102;87;22869;-89
2022/09/13 10:58:04;;;;;;;6.37;2.10;;;;;;;22.61;41.03;100147.16;1483055;87;21381;-92
2022/09/13 11:00:48;;;;;;;5.80;1.77;;;;;;;22.56;40.91;100147.03;1480868;87;21537;-89
2022/09/13 11:04:02;;;;;;;5.35;1.57;;;;;;;22.65;39.79;100137.56;1478987;87;22430;-91
2022/09/13 11:06:50;;;;;;;3.90;1.72;;;;;;;22.41;39.38;100140.25;1479999;86;21418;-94
2022/09/13 11:09:41;;;;;;;2.30;1.57;;;;;;;22.14;37.42;100136.28;1477983;87;21636;-88
2022/09/13 11:12:22;;;;;;;4.03;1.80;;;;;;;21.99;36.55;100133.48;1466133;87;22255;-88
2022/09/13 11:15:19;;;;;;;5.62;1.75;;;;;;;21.96;39.48;100135.83;1488242;86;21412;-86
2022/09/13 11:18:03;;;;;;;2.47;1.72;;;;;;;21.84;40.47;100129.87;1506524;87;21433;-92
2022/09/13 11:20:57;;;;;;;2.12;1.42;;;;;;;21.57;40.66;100128.58;1449190;87;21440;-92
2022/09/13 11:23:51;;;;;;;3.87;1.95;;;;;;;21.30;40.56;100120.80;1458918;89;21626;-91
2022/09/13 11:26:50;;;;;;;2.52;1.85;;;;;;;21.26;41.18;100113.39;1479116;87;22415;-89
2022/09/13 11:29:57;;;;;;;7.25;1.92;;;;;;;21.48;40.32;100107.88;1461545;88;21531;-88
2022/09/13 11:33:15;;;;;;;4.97;1.90;;;;;;;21.74;41.08;100108.56;1469186;87;21694;-89
2022/09/13 11:36:36;;;;;;;2.58;1.65;;;;;;;21.91;39.99;100112.78;1478662;87;21508;-87
2022/09/13 11:39:32;;;;;;;5.78;2.08;;;;;;;22.18;40.43;100108.67;1481918;87;22179;-90
2022/09/13 11:42:08;;;;;;;3.45;1.72;;;;;;;22.11;39.35;100109.80;1478648;87;21995;-86
2022/09/13 11:45:14;;;;;;;2.65;2.17;;;;;;;22.27;40.45;100111.86;1473313;87;22320;-89
2022/09/13 11:48:06;;;;;;;6.10;2.67;;;;;;;22.56;39.20;100111.97;1478195;87;21505;-89
2022/09/13 11:51:00;;;;;;;4.03;1.57;;;;;;;22.84;39.18;100111.27;1479600;87;21458;-87
2022/09/13 11:53:59;;;;;;;3.77;1.60;;;;;;;22.94;38.99;100108.27;1482755;87;21514;-86
2022/09/13 11:56:40;;;;;;;2.13;1.37;;;;;;;22.80;39.30;100107.41;1469045;87;21413;-88
2022/09/13 11:59:43;;;;;;;4.40;1.40;;;;;;;22.85;37.59;100102.14;1484471;87;21502;-86
2022/09/13 12:02:25;;;;;;;2.10;1.42;;;;;;;22.85;38.91;100101.60;1482699;87;22029;-86
2022/09/13 12:05:04;;;;;;;8.80;2.00;;;;;;;23.10;38.68;100097.32;1504275;87;22463;-87
2022/09/13 12:08:23;;;;;;;2.45;1.52;;;;;;;23.35;38.34;100100.23;1491638;87;21624;-90
2022/09/13 12:11:05;;;;;;;2.43;1.50;;;;;;;23.29;36.18;100094.45;1503918;86;21524;-90
2022/09/13 12:13:48;;;;;;;3.62;1.52;;;;;;;23.39;37.64;100091.42;1478868;88;21471;-88